sensor_id;sensor_type;location;lat;lon;timestamp;P1;durP1;ratioP1;P2;durP2;ratioP2
41139;SDS011;26881;48.784;9.192;2023-03-12T00:03:08;11.53;;;3.90;;
41139;SDS011;26881;48.784;9.192;2023-03-12T00:08:30;10.47;;;4.50;;
41139;SDS011;26881;48.784;9.192;2023-03-12T00:13:54;10.27;;;4.40;;
41139;SDS011;26881;48.784;9.192;2023-03-12T00:19:17;8.20;;;4.23;;
41139;SDS011;26881;48.784;9.192;2023-03-12T00:24:39;12.23;;;5.23;;
41139;SDS011;26881;48.784;9.192;2023-03-12T00:30:01;12.13;;;5.47;;
41139;SDS011;26881;48.784;9.192;2023-03-12T00:35:23;14.10;;;6.23;;
41139;SDS011;26881;48.784;9.192;2023-03-12T00:40:46;11.93;;;6.27;;
41139;SDS011;26881;48.784;9.192;2023-03-12T00:46:08;14.23;;;6.50;;
41139;SDS011;26881;48.784;9.192;2023-03-12T00:51:29;12.80;;;5.80;;
41139;SDS011;26881;48.784;9.192;2023-03-12T00:56:51;17.03;;;6.03;;
41139;SDS011;26881;48.784;9.192;2023-03-12T01:02:13;12.63;;;6.17;;
41139;SDS011;26881;48.784;9.192;2023-03-12T01:07:34;15.87;;;6.23;;
41139;SDS011;26881;48.784;9.192;2023-03-12T01:12:56;11.67;;;6.03;;
41139;SDS011;26881;48.784;9.192;2023-03-12T01:18:18;13.53;;;4.73;;
41139;SDS011;26881;48.784;9.192;2023-03-12T01:23:40;10.83;;;5.73;;
41139;SDS011;26881;48.784;9.192;2023-03-12T01:29:02;11.87;;;5.93;;
41139;SDS011;26881;48.784;9.192;2023-03-12T01:34:24;14.27;;;6.20;;
41139;SDS011;26881;48.784;9.192;2023-03-12T01:39:46;10.63;;;5.40;;
41139;SDS011;26881;48.784;9.192;2023-03-12T01:51:08;13.17;;;5.60;;
41139;SDS011;26881;48.784;9.192;2023-03-12T01:56:33;11.10;;;5.23;;
41139;SDS011;26881;48.784;9.192;2023-03-12T02:01:57;10.97;;;5.17;;
41139;SDS011;26881;48.784;9.192;2023-03-12T02:07:20;11.03;;;5.20;;
41139;SDS011;26881;48.784;9.192;2023-03-12T02:12:41;16.27;;;6.53;;
41139;SDS011;26881;48.784;9.192;2023-03-12T02:18:04;12.30;;;5.77;;
41139;SDS011;26881;48.784;9.192;2023-03-12T02:23:37;12.63;;;5.47;;
41139;SDS011;26881;48.784;9.192;2023-03-12T02:29:12;11.20;;;5.30;;
41139;SDS011;26881;48.784;9.192;2023-03-12T02:34:34;12.50;;;5.60;;
41139;SDS011;26881;48.784;9.192;2023-03-12T02:39:59;9.30;;;5.20;;
41139;SDS011;26881;48.784;9.192;2023-03-12T02:45:29;11.03;;;5.77;;
41139;SDS011;26881;48.784;9.192;2023-03-12T02:50:51;13.57;;;5.83;;
41139;SDS011;26881;48.784;9.192;2023-03-12T02:56:13;12.23;;;6.33;;
41139;SDS011;26881;48.784;9.192;2023-03-12T03:01:35;12.83;;;6.57;;
41139;SDS011;26881;48.784;9.192;2023-03-12T03:06:57;11.87;;;6.37;;
41139;SDS011;26881;48.784;9.192;2023-03-12T03:12:19;15.10;;;6.20;;
41139;SDS011;26881;48.784;9.192;2023-03-12T03:17:41;12.40;;;5.90;;
41139;SDS011;26881;48.784;9.192;2023-03-12T03:23:02;16.30;;;6.47;;
41139;SDS011;26881;48.784;9.192;2023-03-12T03:28:25;13.23;;;6.00;;
41139;SDS011;26881;48.784;9.192;2023-03-12T03:33:48;15.87;;;6.50;;
41139;SDS011;26881;48.784;9.192;2023-03-12T03:39:10;10.43;;;5.93;;
41139;SDS011;26881;48.784;9.192;2023-03-12T03:44:33;16.23;;;7.50;;
41139;SDS011;26881;48.784;9.192;2023-03-12T03:49:55;14.97;;;6.63;;
41139;SDS011;26881;48.784;9.192;2023-03-12T03:55:17;11.63;;;6.47;;
41139;SDS011;26881;48.784;9.192;2023-03-12T04:00:38;9.53;;;5.83;;
41139;SDS011;26881;48.784;9.192;2023-03-12T04:06:01;11.37;;;6.17;;
41139;SDS011;26881;48.784;9.192;2023-03-12T04:11:25;13.17;;;6.40;;
41139;SDS011;26881;48.784;9.192;2023-03-12T04:16:47;13.30;;;5.67;;
41139;SDS011;26881;48.784;9.192;2023-03-12T04:22:10;9.93;;;5.40;;
41139;SDS011;26881;48.784;9.192;2023-03-12T04:27:32;12.77;;;5.50;;
41139;SDS011;26881;48.784;9.192;2023-03-12T04:32:54;12.23;;;5.90;;
41139;SDS011;26881;48.784;9.192;2023-03-12T04:38:16;12.70;;;5.83;;
41139;SDS011;26881;48.784;9.192;2023-03-12T04:43:38;9.73;;;5.70;;
41139;SDS011;26881;48.784;9.192;2023-03-12T04:49:00;17.97;;;6.90;;
41139;SDS011;26881;48.784;9.192;2023-03-12T04:54:23;11.37;;;5.97;;
41139;SDS011;26881;48.784;9.192;2023-03-12T04:59:46;12.70;;;5.67;;
41139;SDS011;26881;48.784;9.192;2023-03-12T05:05:09;9.60;;;5.57;;
41139;SDS011;26881;48.784;9.192;2023-03-12T05:10:32;11.03;;;5.80;;
41139;SDS011;26881;48.784;9.192;2023-03-12T05:15:53;14.00;;;5.67;;
41139;SDS011;26881;48.784;9.192;2023-03-12T05:21:16;12.10;;;5.80;;
41139;SDS011;26881;48.784;9.192;2023-03-12T05:26:40;11.87;;;5.53;;
41139;SDS011;26881;48.784;9.192;2023-03-12T05:32:02;11.30;;;6.20;;
41139;SDS011;26881;48.784;9.192;2023-03-12T05:37:24;10.07;;;5.83;;
41139;SDS011;26881;48.784;9.192;2023-03-12T05:42:45;10.47;;;5.60;;
41139;SDS011;26881;48.784;9.192;2023-03-12T05:48:07;9.93;;;5.77;;
41139;SDS011;26881;48.784;9.192;2023-03-12T05:53:29;13.40;;;5.33;;
41139;SDS011;26881;48.784;9.192;2023-03-12T05:58:51;12.07;;;5.07;;
41139;SDS011;26881;48.784;9.192;2023-03-12T06:04:12;7.97;;;5.37;;
41139;SDS011;26881;48.784;9.192;2023-03-12T06:09:34;11.80;;;6.43;;
41139;SDS011;26881;48.784;9.192;2023-03-12T06:14:56;12.87;;;5.60;;
41139;SDS011;26881;48.784;9.192;2023-03-12T06:20:18;10.43;;;5.57;;
41139;SDS011;26881;48.784;9.192;2023-03-12T06:25:43;11.33;;;5.63;;
41139;SDS011;26881;48.784;9.192;2023-03-12T06:31:05;11.57;;;5.87;;
41139;SDS011;26881;48.784;9.192;2023-03-12T06:36:28;13.73;;;6.33;;
41139;SDS011;26881;48.784;9.192;2023-03-12T06:41:50;17.60;;;6.50;;
41139;SDS011;26881;48.784;9.192;2023-03-12T06:47:12;9.57;;;6.20;;
41139;SDS011;26881;48.784;9.192;2023-03-12T06:52:34;9.20;;;5.73;;
41139;SDS011;26881;48.784;9.192;2023-03-12T06:57:56;11.00;;;6.03;;
41139;SDS011;26881;48.784;9.192;2023-03-12T07:03:18;12.03;;;5.93;;
41139;SDS011;26881;48.784;9.192;2023-03-12T07:08:40;12.10;;;5.90;;
41139;SDS011;26881;48.784;9.192;2023-03-12T07:14:02;11.37;;;5.97;;
41139;SDS011;26881;48.784;9.192;2023-03-12T07:19:24;10.53;;;5.60;;
41139;SDS011;26881;48.784;9.192;2023-03-12T07:24:46;11.43;;;5.10;;
41139;SDS011;26881;48.784;9.192;2023-03-12T07:30:07;10.53;;;5.50;;
41139;SDS011;26881;48.784;9.192;2023-03-12T07:35:30;4.73;;;4.23;;
41139;SDS011;26881;48.784;9.192;2023-03-12T07:40:54;8.23;;;5.80;;
41139;SDS011;26881;48.784;9.192;2023-03-12T07:46:17;9.00;;;5.57;;
41139;SDS011;26881;48.784;9.192;2023-03-12T07:51:39;9.43;;;5.63;;
41139;SDS011;26881;48.784;9.192;2023-03-12T07:57:01;8.43;;;4.77;;
41139;SDS011;26881;48.784;9.192;2023-03-12T08:02:23;6.93;;;4.53;;
41139;SDS011;26881;48.784;9.192;2023-03-12T08:07:45;7.60;;;4.83;;
41139;SDS011;26881;48.784;9.192;2023-03-12T08:13:07;10.57;;;5.60;;
41139;SDS011;26881;48.784;9.192;2023-03-12T08:18:29;7.53;;;4.53;;
41139;SDS011;26881;48.784;9.192;2023-03-12T08:23:50;9.57;;;5.20;;
41139;SDS011;26881;48.784;9.192;2023-03-12T08:29:12;8.53;;;5.33;;
41139;SDS011;26881;48.784;9.192;2023-03-12T08:34:35;8.50;;;5.23;;
41139;SDS011;26881;48.784;9.192;2023-03-12T08:39:57;10.13;;;5.17;;
41139;SDS011;26881;48.784;9.192;2023-03-12T08:45:19;11.93;;;5.97;;
41139;SDS011;26881;48.784;9.192;2023-03-12T08:50:41;11.23;;;6.70;;
41139;SDS011;26881;48.784;9.192;2023-03-12T08:56:03;8.37;;;6.00;;
41139;SDS011;26881;48.784;9.192;2023-03-12T09:01:25;9.50;;;5.97;;
41139;SDS011;26881;48.784;9.192;2023-03-12T09:06:47;11.67;;;6.53;;
41139;SDS011;26881;48.784;9.192;2023-03-12T09:12:09;12.07;;;7.13;;
41139;SDS011;26881;48.784;9.192;2023-03-12T09:17:31;11.60;;;7.90;;
41139;SDS011;26881;48.784;9.192;2023-03-12T09:22:53;11.23;;;7.20;;
41139;SDS011;26881;48.784;9.192;2023-03-12T09:28:14;10.27;;;6.43;;
41139;SDS011;26881;48.784;9.192;2023-03-12T09:33:38;10.97;;;7.03;;
41139;SDS011;26881;48.784;9.192;2023-03-12T09:39:00;10.00;;;7.07;;
41139;SDS011;26881;48.784;9.192;2023-03-12T09:50:07;13.80;;;8.47;;
41139;SDS011;26881;48.784;9.192;2023-03-12T09:55:41;10.67;;;8.20;;
41139;SDS011;26881;48.784;9.192;2023-03-12T10:12:39;11.17;;;8.83;;
41139;SDS011;26881;48.784;9.192;2023-03-12T10:18:16;10.13;;;8.37;;
41139;SDS011;26881;48.784;9.192;2023-03-12T10:24:06;12.80;;;8.30;;
41139;SDS011;26881;48.784;9.192;2023-03-12T10:29:29;13.17;;;7.87;;
41139;SDS011;26881;48.784;9.192;2023-03-12T10:34:59;10.70;;;7.33;;
41139;SDS011;26881;48.784;9.192;2023-03-12T10:40:26;14.32;;;8.00;;
41139;SDS011;26881;48.784;9.192;2023-03-12T10:46:01;12.77;;;6.67;;
41139;SDS011;26881;48.784;9.192;2023-03-12T10:57:41;6.75;;;5.43;;
41139;SDS011;26881;48.784;9.192;2023-03-12T11:03:17;2.53;;;2.22;;
41139;SDS011;26881;48.784;9.192;2023-03-12T11:08:41;5.43;;;2.40;;
41139;SDS011;26881;48.784;9.192;2023-03-12T11:19:33;3.75;;;2.08;;
41139;SDS011;26881;48.784;9.192;2023-03-12T11:25:05;3.05;;;1.90;;
41139;SDS011;26881;48.784;9.192;2023-03-12T11:31:01;2.60;;;2.15;;
41139;SDS011;26881;48.784;9.192;2023-03-12T11:41:59;1.50;;;1.30;;
41139;SDS011;26881;48.784;9.192;2023-03-12T12:05:17;2.23;;;0.97;;
41139;SDS011;26881;48.784;9.192;2023-03-12T12:10:52;3.70;;;1.20;;
41139;SDS011;26881;48.784;9.192;2023-03-12T12:22:13;5.60;;;1.33;;
41139;SDS011;26881;48.784;9.192;2023-03-12T12:39:12;3.35;;;1.17;;
41139;SDS011;26881;48.784;9.192;2023-03-12T12:44:50;3.17;;;1.27;;
41139;SDS011;26881;48.784;9.192;2023-03-12T12:50:18;3.33;;;1.33;;
41139;SDS011;26881;48.784;9.192;2023-03-12T12:55:45;5.65;;;1.70;;
41139;SDS011;26881;48.784;9.192;2023-03-12T13:01:16;6.88;;;1.83;;
41139;SDS011;26881;48.784;9.192;2023-03-12T13:06:51;2.42;;;1.10;;
41139;SDS011;26881;48.784;9.192;2023-03-12T13:23:49;5.97;;;1.60;;
41139;SDS011;26881;48.784;9.192;2023-03-12T13:34:55;4.65;;;1.63;;
41139;SDS011;26881;48.784;9.192;2023-03-12T13:51:27;4.97;;;1.60;;
41139;SDS011;26881;48.784;9.192;2023-03-12T13:57:00;5.38;;;1.85;;
41139;SDS011;26881;48.784;9.192;2023-03-12T14:02:28;9.85;;;1.95;;
41139;SDS011;26881;48.784;9.192;2023-03-12T14:08:13;9.05;;;1.75;;
41139;SDS011;26881;48.784;9.192;2023-03-12T14:19:47;5.35;;;1.98;;
41139;SDS011;26881;48.784;9.192;2023-03-12T14:25:13;8.10;;;2.10;;
41139;SDS011;26881;48.784;9.192;2023-03-12T14:30:55;4.38;;;1.50;;
41139;SDS011;26881;48.784;9.192;2023-03-12T14:36:19;5.20;;;1.70;;
41139;SDS011;26881;48.784;9.192;2023-03-12T14:41:43;6.25;;;1.77;;
41139;SDS011;26881;48.784;9.192;2023-03-12T14:47:09;4.43;;;1.40;;
41139;SDS011;26881;48.784;9.192;2023-03-12T14:52:37;6.10;;;1.77;;
41139;SDS011;26881;48.784;9.192;2023-03-12T14:58:06;6.55;;;1.73;;
41139;SDS011;26881;48.784;9.192;2023-03-12T15:03:40;6.90;;;1.67;;
41139;SDS011;26881;48.784;9.192;2023-03-12T15:09:05;9.25;;;1.75;;
41139;SDS011;26881;48.784;9.192;2023-03-12T15:14:29;7.32;;;1.80;;
41139;SDS011;26881;48.784;9.192;2023-03-12T15:19:55;4.15;;;1.33;;
41139;SDS011;26881;48.784;9.192;2023-03-12T15:25:22;7.47;;;1.75;;
41139;SDS011;26881;48.784;9.192;2023-03-12T15:30:45;4.10;;;1.30;;
41139;SDS011;26881;48.784;9.192;2023-03-12T15:41:42;6.78;;;1.77;;
41139;SDS011;26881;48.784;9.192;2023-03-12T15:47:10;6.03;;;2.03;;
41139;SDS011;26881;48.784;9.192;2023-03-12T15:52:35;8.23;;;2.55;;
41139;SDS011;26881;48.784;9.192;2023-03-12T15:57:57;7.88;;;2.58;;
41139;SDS011;26881;48.784;9.192;2023-03-12T16:03:20;8.45;;;2.35;;
41139;SDS011;26881;48.784;9.192;2023-03-12T16:08:43;5.07;;;1.90;;
41139;SDS011;26881;48.784;9.192;2023-03-12T16:14:21;5.30;;;2.17;;
41139;SDS011;26881;48.784;9.192;2023-03-12T16:19:46;10.35;;;2.75;;
41139;SDS011;26881;48.784;9.192;2023-03-12T16:25:08;7.38;;;2.03;;
41139;SDS011;26881;48.784;9.192;2023-03-12T16:30:33;11.18;;;2.50;;
41139;SDS011;26881;48.784;9.192;2023-03-12T16:35:56;8.20;;;2.40;;
41139;SDS011;26881;48.784;9.192;2023-03-12T16:41:18;9.63;;;2.72;;
41139;SDS011;26881;48.784;9.192;2023-03-12T16:46:40;10.30;;;2.70;;
41139;SDS011;26881;48.784;9.192;2023-03-12T16:52:11;9.18;;;2.58;;
41139;SDS011;26881;48.784;9.192;2023-03-12T16:57:37;12.07;;;3.25;;
41139;SDS011;26881;48.784;9.192;2023-03-12T17:03:02;8.75;;;2.75;;
41139;SDS011;26881;48.784;9.192;2023-03-12T17:08:26;11.00;;;2.88;;
41139;SDS011;26881;48.784;9.192;2023-03-12T17:13:52;9.07;;;2.58;;
41139;SDS011;26881;48.784;9.192;2023-03-12T17:19:18;8.48;;;2.83;;
41139;SDS011;26881;48.784;9.192;2023-03-12T17:24:40;8.52;;;3.30;;
41139;SDS011;26881;48.784;9.192;2023-03-12T17:30:01;16.33;;;4.13;;
41139;SDS011;26881;48.784;9.192;2023-03-12T17:35:23;16.52;;;3.33;;
41139;SDS011;26881;48.784;9.192;2023-03-12T17:40:45;13.90;;;3.92;;
41139;SDS011;26881;48.784;9.192;2023-03-12T17:46:07;9.02;;;3.08;;
41139;SDS011;26881;48.784;9.192;2023-03-12T17:51:30;9.75;;;3.72;;
41139;SDS011;26881;48.784;9.192;2023-03-12T17:56:52;17.85;;;4.63;;
41139;SDS011;26881;48.784;9.192;2023-03-12T18:02:14;13.52;;;4.07;;
41139;SDS011;26881;48.784;9.192;2023-03-12T18:07:36;12.90;;;3.55;;
41139;SDS011;26881;48.784;9.192;2023-03-12T18:12:58;11.15;;;4.53;;
41139;SDS011;26881;48.784;9.192;2023-03-12T18:18:20;14.85;;;4.40;;
41139;SDS011;26881;48.784;9.192;2023-03-12T18:23:43;10.55;;;3.38;;
41139;SDS011;26881;48.784;9.192;2023-03-12T18:29:06;10.68;;;3.50;;
41139;SDS011;26881;48.784;9.192;2023-03-12T18:34:28;10.68;;;3.55;;
41139;SDS011;26881;48.784;9.192;2023-03-12T18:39:50;12.90;;;4.13;;
41139;SDS011;26881;48.784;9.192;2023-03-12T18:45:12;8.45;;;3.72;;
41139;SDS011;26881;48.784;9.192;2023-03-12T18:50:33;8.27;;;3.65;;
41139;SDS011;26881;48.784;9.192;2023-03-12T18:55:56;12.00;;;3.50;;
41139;SDS011;26881;48.784;9.192;2023-03-12T19:01:19;9.73;;;3.17;;
41139;SDS011;26881;48.784;9.192;2023-03-12T19:06:41;12.25;;;3.35;;
41139;SDS011;26881;48.784;9.192;2023-03-12T19:12:11;13.05;;;4.07;;
41139;SDS011;26881;48.784;9.192;2023-03-12T19:17:33;10.45;;;4.13;;
41139;SDS011;26881;48.784;9.192;2023-03-12T19:22:55;14.52;;;4.65;;
41139;SDS011;26881;48.784;9.192;2023-03-12T19:28:17;15.88;;;4.85;;
41139;SDS011;26881;48.784;9.192;2023-03-12T19:33:39;13.60;;;3.95;;
41139;SDS011;26881;48.784;9.192;2023-03-12T19:39:02;11.98;;;3.92;;
41139;SDS011;26881;48.784;9.192;2023-03-12T19:44:32;11.35;;;4.00;;
41139;SDS011;26881;48.784;9.192;2023-03-12T19:49:56;12.27;;;3.85;;
41139;SDS011;26881;48.784;9.192;2023-03-12T19:55:18;12.95;;;3.90;;
41139;SDS011;26881;48.784;9.192;2023-03-12T20:00:40;10.55;;;4.35;;
41139;SDS011;26881;48.784;9.192;2023-03-12T20:06:03;12.20;;;4.75;;
41139;SDS011;26881;48.784;9.192;2023-03-12T20:11:28;14.57;;;5.90;;
41139;SDS011;26881;48.784;9.192;2023-03-12T20:16:50;14.38;;;5.97;;
41139;SDS011;26881;48.784;9.192;2023-03-12T20:22:12;15.27;;;5.40;;
41139;SDS011;26881;48.784;9.192;2023-03-12T20:27:35;14.35;;;5.97;;
41139;SDS011;26881;48.784;9.192;2023-03-12T20:32:57;15.80;;;5.40;;
41139;SDS011;26881;48.784;9.192;2023-03-12T20:38:19;13.10;;;5.68;;
41139;SDS011;26881;48.784;9.192;2023-03-12T20:43:41;14.52;;;5.40;;
41139;SDS011;26881;48.784;9.192;2023-03-12T20:49:03;16.88;;;5.15;;
41139;SDS011;26881;48.784;9.192;2023-03-12T20:54:25;14.95;;;5.70;;
41139;SDS011;26881;48.784;9.192;2023-03-12T20:59:47;12.85;;;4.75;;
41139;SDS011;26881;48.784;9.192;2023-03-12T21:05:09;14.95;;;5.25;;
41139;SDS011;26881;48.784;9.192;2023-03-12T21:10:35;15.50;;;4.70;;
41139;SDS011;26881;48.784;9.192;2023-03-12T21:15:57;14.85;;;4.28;;
41139;SDS011;26881;48.784;9.192;2023-03-12T21:21:19;16.13;;;5.20;;
41139;SDS011;26881;48.784;9.192;2023-03-12T21:26:41;28.67;;;10.65;;
41139;SDS011;26881;48.784;9.192;2023-03-12T21:32:03;34.10;;;12.05;;
41139;SDS011;26881;48.784;9.192;2023-03-12T21:37:25;24.50;;;8.75;;
41139;SDS011;26881;48.784;9.192;2023-03-12T21:42:47;24.38;;;5.90;;
41139;SDS011;26881;48.784;9.192;2023-03-12T21:48:09;17.10;;;4.38;;
41139;SDS011;26881;48.784;9.192;2023-03-12T21:53:30;13.75;;;4.20;;
41139;SDS011;26881;48.784;9.192;2023-03-12T21:58:56;13.25;;;4.35;;
41139;SDS011;26881;48.784;9.192;2023-03-12T22:04:18;13.10;;;4.28;;
41139;SDS011;26881;48.784;9.192;2023-03-12T22:09:41;15.23;;;4.20;;
41139;SDS011;26881;48.784;9.192;2023-03-12T22:15:03;14.20;;;4.70;;
41139;SDS011;26881;48.784;9.192;2023-03-12T22:20:26;14.90;;;4.30;;
41139;SDS011;26881;48.784;9.192;2023-03-12T22:25:48;14.20;;;4.32;;
41139;SDS011;26881;48.784;9.192;2023-03-12T22:31:10;17.73;;;5.30;;
41139;SDS011;26881;48.784;9.192;2023-03-12T22:36:32;16.65;;;4.80;;
41139;SDS011;26881;48.784;9.192;2023-03-12T22:41:54;13.63;;;4.07;;
41139;SDS011;26881;48.784;9.192;2023-03-12T22:47:16;13.73;;;3.83;;
41139;SDS011;26881;48.784;9.192;2023-03-12T22:52:38;11.25;;;3.38;;
41139;SDS011;26881;48.784;9.192;2023-03-12T22:58:00;11.13;;;3.55;;
41139;SDS011;26881;48.784;9.192;2023-03-12T23:03:21;14.77;;;4.10;;
41139;SDS011;26881;48.784;9.192;2023-03-12T23:08:43;10.80;;;3.40;;
41139;SDS011;26881;48.784;9.192;2023-03-12T23:14:08;14.63;;;3.92;;
41139;SDS011;26881;48.784;9.192;2023-03-12T23:19:32;15.77;;;4.37;;
41139;SDS011;26881;48.784;9.192;2023-03-12T23:24:54;13.93;;;3.95;;
41139;SDS011;26881;48.784;9.192;2023-03-12T23:30:16;10.23;;;3.83;;
41139;SDS011;26881;48.784;9.192;2023-03-12T23:35:38;11.63;;;3.67;;
41139;SDS011;26881;48.784;9.192;2023-03-12T23:41:04;16.83;;;4.13;;
41139;SDS011;26881;48.784;9.192;2023-03-12T23:46:27;15.10;;;3.60;;
41139;SDS011;26881;48.784;9.192;2023-03-12T23:51:49;11.73;;;3.70;;
41139;SDS011;26881;48.784;9.192;2023-03-12T23:57:11;10.70;;;3.53;;
